Time;durP1;ratioP1;P1;durP2;ratioP2;P2;SDS_P1;SDS_P2;PMS_P1;PMS_P2;Temp;Humidity;BMP_temperature;BMP_pressure;BME280_temperature;BME280_humidity;BME280_pressure;Samples;Min_cycle;Max_cycle;Signal;HPM_P1;HPM_P2
2021/08/19 00:00:55;;;;;;;;;;;;;;;21.95;67.37;96503.40;222707;260;193757;-51
2021/08/19 00:01:57;;;;;;;;;;;;;;;21.96;67.34;96502.82;222595;260;193567;-48
2021/08/19 00:02:58;;;;;;;;;;;;;;;21.95;67.36;96500.64;222926;260;98941;-49
2021/08/19 00:03:59;;;;;;;;;;;;;;;21.92;67.48;96498.59;221764;261;98948;-54
2021/08/19 00:05:01;;;;;;;;;;;;;;;21.92;67.49;96490.89;220811;262;99100;-53
2021/08/19 00:06:02;;;;;;;;;;;;;;;21.97;67.38;96496.73;221184;261;97982;-50
2021/08/19 00:07:03;;;;;;;;;;;;;;;21.94;67.43;96497.66;221394;262;98937;-51
2021/08/19 00:08:05;;;;;;;;;;;;;;;21.92;67.39;96499.97;221387;261;99432;-47
2021/08/19 00:09:06;;;;;;;;;;;;;;;21.94;67.38;96488.00;222130;260;194235;-50
2021/08/19 00:10:10;;;;;;;;;;;;;;;21.98;67.31;96491.44;221883;261;98945;-48
2021/08/19 00:11:11;;;;;;;;;;;;;;;21.95;67.35;96499.27;221312;262;67459;-47
2021/08/19 00:12:12;;;;;;;;;;;;;;;21.93;67.40;96494.67;220305;263;98029;-48
2021/08/19 00:13:13;;;;;;;;;;;;;;;22.00;67.23;96498.20;221987;261;98991;-51
2021/08/19 00:14:15;;;;;;;;;;;;;;;21.93;67.44;96491.91;221271;262;277934;-46
2021/08/19 00:15:16;;;;;;;;;;;;;;;21.95;67.41;96494.32;221781;261;197154;-51
2021/08/19 00:16:17;;;;;;;;;;;;;;;21.95;67.39;96490.18;221336;261;194269;-49
2021/08/19 00:17:19;;;;;;;;;;;;;;;21.94;67.42;96494.89;222032;261;99436;-47
2021/08/19 00:18:20;;;;;;;;;;;;;;;22.00;67.23;96493.26;221836;261;98866;-51
2021/08/19 00:19:21;;;;;;;;;;;;;;;22.00;67.29;96490.50;222100;261;98948;-47
2021/08/19 00:20:23;;;;;;;;;;;;;;;21.98;67.35;96485.91;221148;262;98997;-50
2021/08/19 00:21:24;;;;;;;;;;;;;;;21.95;67.37;96486.84;221978;261;98862;-48
2021/08/19 00:22:25;;;;;;;;;;;;;;;21.95;67.41;96483.28;221632;261;98945;-50
2021/08/19 00:23:27;;;;;;;;;;;;;;;21.97;67.49;96492.59;221816;261;98758;-51
2021/08/19 00:24:28;;;;;;;;;;;;;;;21.92;67.63;96488.93;221886;261;98863;-50
2021/08/19 00:25:30;;;;;;;;;;;;;;;21.95;67.57;96483.28;221859;261;189340;-50
2021/08/19 00:26:31;;;;;;;;;;;;;;;21.92;67.67;96490.31;221079;262;273340;-53
2021/08/19 00:27:32;;;;;;;;;;;;;;;21.95;67.54;96489.60;220705;261;194813;-50
2021/08/19 00:28:33;;;;;;;;;;;;;;;21.94;67.52;96490.76;219474;262;192323;-56
2021/08/19 00:29:35;;;;;;;;;;;;;;;21.95;67.57;96490.18;220589;263;97070;-52
2021/08/19 00:30:36;;;;;;;;;;;;;;;21.93;67.56;96490.53;222626;260;98988;-51
2021/08/19 00:31:37;;;;;;;;;;;;;;;21.97;67.48;96489.83;222402;260;98949;-48
2021/08/19 00:32:39;;;;;;;;;;;;;;;22.04;67.31;96491.43;220564;262;97996;-50
2021/08/19 00:33:40;;;;;;;;;;;;;;;21.98;67.45;96489.47;223002;260;97929;-52
2021/08/19 00:34:41;;;;;;;;;;;;;;;21.95;67.50;96488.22;222474;260;98006;-48
2021/08/19 00:35:43;;;;;;;;;;;;;;;21.99;67.47;96486.14;222236;260;97955;-46
2021/08/19 00:36:44;;;;;;;;;;;;;;;22.02;67.37;96486.84;222445;260;98948;-52
2021/08/19 00:37:46;;;;;;;;;;;;;;;21.96;67.59;96490.41;222368;260;98944;-51
2021/08/19 00:38:47;;;;;;;;;;;;;;;21.92;67.67;96486.17;222582;260;97980;-50
2021/08/19 00:39:48;;;;;;;;;;;;;;;21.92;67.70;96484.80;221452;260;99227;-48
2021/08/19 00:40:50;;;;;;;;;;;;;;;21.99;67.51;96488.32;221492;261;98008;-52
2021/08/19 00:41:51;;;;;;;;;;;;;;;21.97;67.57;96490.62;221818;260;97947;-52
2021/08/19 00:42:52;;;;;;;;;;;;;;;21.90;67.74;96487.10;221400;262;98779;-53
2021/08/19 00:43:53;;;;;;;;;;;;;;;21.97;67.57;96487.87;221256;261;98869;-47
2021/08/19 00:44:55;;;;;;;;;;;;;;;21.98;67.56;96494.19;221279;260;189649;-48
2021/08/19 00:45:58;;;;;;;;;;;;;;;21.97;67.54;96489.25;219419;264;277962;-51
2021/08/19 00:46:59;;;;;;;;;;;;;;;21.98;67.51;96486.72;220254;262;193760;-51
2021/08/19 00:48:00;;;;;;;;;;;;;;;21.95;67.58;96484.08;222005;261;193860;-46
2021/08/19 00:49:02;;;;;;;;;;;;;;;21.97;67.56;96487.06;221661;261;98934;-45
2021/08/19 00:50:03;;;;;;;;;;;;;;;22.00;67.45;96486.36;220640;262;100317;-47
2021/08/19 00:51:05;;;;;;;;;;;;;;;21.98;67.50;96488.67;220683;262;97662;-50
2021/08/19 00:52:06;;;;;;;;;;;;;;;21.99;67.45;96480.63;220665;262;98016;-49
2021/08/19 00:53:07;;;;;;;;;;;;;;;21.98;67.46;96484.53;220804;262;98025;-46
2021/08/19 00:54:09;;;;;;;;;;;;;;;21.95;67.57;96483.28;220982;262;97983;-52
2021/08/19 00:55:10;;;;;;;;;;;;;;;21.96;67.58;96484.89;221415;261;98961;-46
2021/08/19 00:56:11;;;;;;;;;;;;;;;21.95;67.55;96487.42;221770;261;98978;-50
2021/08/19 00:57:13;;;;;;;;;;;;;;;21.97;67.56;96485.69;220985;261;99000;-49
2021/08/19 00:58:14;;;;;;;;;;;;;;;21.94;67.64;96485.81;221392;262;97987;-49
2021/08/19 00:59:16;;;;;;;;;;;;;;;21.93;67.62;96490.53;221512;261;99436;-50
2021/08/19 01:00:17;;;;;;;;;;;;;;;21.93;67.63;96489.73;221853;261;98946;-48
2021/08/19 01:01:18;;;;;;;;;;;;;;;21.95;67.54;96485.47;221638;261;99433;-47
2021/08/19 01:02:20;;;;;;;;;;;;;;;21.98;67.42;96485.34;221506;261;193307;-45
2021/08/19 01:03:21;;;;;;;;;;;;;;;21.99;67.46;96491.66;221864;261;97964;-45
2021/08/19 01:04:22;;;;;;;;;;;;;;;21.92;67.65;96490.31;221158;261;98869;-45
2021/08/19 01:05:24;;;;;;;;;;;;;;;21.95;67.53;96490.98;221456;262;98974;-49
2021/08/19 01:06:25;;;;;;;;;;;;;;;21.99;67.46;96493.84;221002;261;98946;-50
2021/08/19 01:07:26;;;;;;;;;;;;;;;21.99;67.47;96486.14;220783;262;98942;-48
2021/08/19 01:08:28;;;;;;;;;;;;;;;22.00;67.43;96487.73;220862;262;97998;-48
2021/08/19 01:09:29;;;;;;;;;;;;;;;22.01;67.39;96486.04;220544;262;97959;-51
2021/08/19 01:10:30;;;;;;;;;;;;;;;21.98;67.55;96485.91;220819;262;98074;-45
2021/08/19 01:11:33;;;;;;;;;;;;;;;21.98;67.54;96483.16;221345;261;189023;-47
2021/08/19 01:12:34;;;;;;;;;;;;;;;21.99;67.49;96491.66;221427;261;277494;-48
2021/08/19 01:13:36;;;;;;;;;;;;;;;21.95;67.55;96477.19;221794;261;194633;-46
2021/08/19 01:14:37;;;;;;;;;;;;;;;21.94;67.58;96482.48;220838;262;193420;-45
2021/08/19 01:15:38;;;;;;;;;;;;;;;21.95;67.55;96488.22;221294;261;97983;-52
2021/08/19 01:16:40;;;;;;;;;;;;;;;21.98;67.51;96481.77;220768;262;190212;-50
2021/08/19 01:17:41;;;;;;;;;;;;;;;21.98;67.51;96489.47;220642;262;277489;-48
2021/08/19 01:18:43;;;;;;;;;;;;;;;21.99;67.45;96487.52;221141;261;194912;-51
2021/08/19 01:19:44;;;;;;;;;;;;;;;21.99;67.46;96488.32;221310;262;193532;-48
2021/08/19 01:20:45;;;;;;;;;;;;;;;22.00;67.37;96481.64;221946;261;99073;-53
2021/08/19 01:21:47;;;;;;;;;;;;;;;22.01;67.39;96490.72;221753;261;97970;-48
2021/08/19 01:22:48;;;;;;;;;;;;;;;21.97;67.47;96482.35;222142;261;98008;-49
2021/08/19 01:23:49;;;;;;;;;;;;;;;21.99;67.46;96482.00;221420;261;97917;-47
2021/08/19 01:24:51;;;;;;;;;;;;;;;21.98;67.49;96489.47;221710;262;97065;-49
2021/08/19 01:25:52;;;;;;;;;;;;;;;21.97;67.55;96483.73;221574;261;98957;-49
2021/08/19 01:26:53;;;;;;;;;;;;;;;21.97;67.60;96488.45;221729;261;98937;-48
2021/08/19 01:27:55;;;;;;;;;;;;;;;21.98;67.53;96483.95;222071;261;98950;-45
2021/08/19 01:28:56;;;;;;;;;;;;;;;21.93;67.69;96477.31;220918;261;190241;-46
2021/08/19 01:29:57;;;;;;;;;;;;;;;21.94;67.68;96479.72;220670;262;276105;-47
2021/08/19 01:30:59;;;;;;;;;;;;;;;21.92;67.71;96485.37;221312;261;195221;-48
2021/08/19 01:32:00;;;;;;;;;;;;;;;21.94;67.65;96483.86;221730;261;193393;-46
2021/08/19 01:33:01;;;;;;;;;;;;;;;21.91;67.73;96485.95;222099;261;98985;-46
2021/08/19 01:34:03;;;;;;;;;;;;;;;21.93;67.67;96482.26;221826;261;192013;-49
2021/08/19 01:35:04;;;;;;;;;;;;;;;21.92;67.68;96483.41;221681;261;277929;-48
2021/08/19 01:36:05;;;;;;;;;;;;;;;21.95;67.63;96473.63;221161;261;195671;-51
2021/08/19 01:37:07;;;;;;;;;;;;;;;21.93;67.66;96476.73;221197;262;194218;-49
2021/08/19 01:38:08;;;;;;;;;;;;;;;21.95;67.65;96473.05;221664;261;98937;-45
2021/08/19 01:39:09;;;;;;;;;;;;;;;21.90;67.78;96472.47;220762;262;189345;-48
2021/08/19 01:40:11;;;;;;;;;;;;;;;21.89;67.82;96481.33;220746;261;276750;-50
2021/08/19 01:41:12;;;;;;;;;;;;;;;21.92;67.70;96471.00;221186;261;194846;-53
2021/08/19 01:42:13;;;;;;;;;;;;;;;21.95;67.60;96473.63;221365;262;193309;-47
2021/08/19 01:43:15;;;;;;;;;;;;;;;21.90;67.86;96481.58;221672;261;98046;-51
2021/08/19 01:44:16;;;;;;;;;;;;;;;21.88;67.87;96474.78;221151;261;189757;-54
2021/08/19 01:45:18;;;;;;;;;;;;;;;21.85;67.97;96474.91;221522;261;277205;-45
2021/08/19 01:46:19;;;;;;;;;;;;;;;21.84;68.00;96474.69;220228;263;195563;-47
2021/08/19 01:47:22;;;;;;;;;;;;;;;21.82;68.04;96471.48;220161;262;194722;-49
2021/08/19 01:48:23;;;;;;;;;;;;;;;21.84;68.01;96466.41;221509;262;98863;-46
2021/08/19 01:49:25;;;;;;;;;;;;;;;21.83;68.04;96469.52;221589;262;98927;-47
2021/08/19 01:50:26;;;;;;;;;;;;;;;21.86;67.89;96471.00;223028;260;99000;-48
2021/08/19 01:51:27;;;;;;;;;;;;;;;21.85;67.93;96472.16;223162;260;98897;-49
2021/08/19 01:52:29;;;;;;;;;;;;;;;21.84;68.10;96471.92;222384;261;98851;-54
2021/08/19 01:53:30;;;;;;;;;;;;;;;21.84;68.03;96471.13;222247;261;194713;-46
2021/08/19 01:54:31;;;;;;;;;;;;;;;21.84;68.03;96466.98;222257;261;193303;-53
2021/08/19 01:55:33;;;;;;;;;;;;;;;21.83;68.02;96467.56;222682;261;97961;-48
2021/08/19 01:56:34;;;;;;;;;;;;;;;21.86;67.89;96465.48;222148;261;188334;-49
2021/08/19 01:57:35;;;;;;;;;;;;;;;21.83;68.02;96467.56;221437;261;275378;-53
2021/08/19 01:58:37;;;;;;;;;;;;;;;21.85;67.93;96470.77;221960;260;194808;-50
2021/08/19 01:59:38;;;;;;;;;;;;;;;21.87;67.91;96471.22;221963;260;194623;-46
2021/08/19 02:00:39;;;;;;;;;;;;;;;21.88;67.87;96468.69;221472;262;99071;-47
2021/08/19 02:01:40;;;;;;;;;;;;;;;21.85;67.94;96471.35;221129;262;189529;-50
2021/08/19 02:02:43;;;;;;;;;;;;;;;21.82;68.03;96471.48;222167;261;279868;-48
2021/08/19 02:03:44;;;;;;;;;;;;;;;21.83;68.04;96468.95;222266;261;194551;-49
2021/08/19 02:04:45;;;;;;;;;;;;;;;21.88;67.90;96467.89;222278;261;194432;-50
2021/08/19 02:05:48;;;;;;;;;;;;;;;21.88;67.89;96472.02;222715;261;97925;-45
2021/08/19 02:06:50;;;;;;;;;;;;;;;21.87;67.86;96471.22;222294;261;98980;-47
2021/08/19 02:07:51;;;;;;;;;;;;;;;21.88;67.86;96472.83;222641;261;100213;-48
2021/08/19 02:08:52;;;;;;;;;;;;;;;21.84;67.98;96478.83;222340;261;98855;-51
2021/08/19 02:09:54;;;;;;;;;;;;;;;21.92;67.74;96465.48;222230;261;276024;-49
2021/08/19 02:10:55;;;;;;;;;;;;;;;21.94;67.69;96470.06;222332;261;195534;-46
2021/08/19 02:11:56;;;;;;;;;;;;;;;21.87;67.91;96469.84;223272;260;194179;-50
2021/08/19 02:12:58;;;;;;;;;;;;;;;21.87;67.87;96475.36;223544;260;98929;-51
2021/08/19 02:13:59;;;;;;;;;;;;;;;21.84;67.97;96467.79;221742;261;98937;-53
2021/08/19 02:15:00;;;;;;;;;;;;;;;21.83;67.99;96468.95;221412;262;98977;-48
2021/08/19 02:16:02;;;;;;;;;;;;;;;21.82;68.06;96470.10;221909;261;98980;-47
2021/08/19 02:17:03;;;;;;;;;;;;;;;21.82;68.07;96465.96;222211;261;98933;-48
2021/08/19 02:18:04;;;;;;;;;;;;;;;21.84;68.00;96463.66;221223;262;97907;-46
2021/08/19 02:19:06;;;;;;;;;;;;;;;21.79;68.19;96469.39;220607;262;98017;-52
2021/08/19 02:20:07;;;;;;;;;;;;;;;21.83;68.08;96465.38;221550;262;97672;-47
2021/08/19 02:21:08;;;;;;;;;;;;;;;21.86;67.96;96472.37;220909;262;98977;-48
2021/08/19 02:22:10;;;;;;;;;;;;;;;21.86;68.00;96466.06;221312;262;99424;-47
2021/08/19 02:23:11;;;;;;;;;;;;;;;21.82;68.13;96467.34;221957;261;99415;-46
2021/08/19 02:24:12;;;;;;;;;;;;;;;21.82;68.09;96464.58;220898;262;98974;-45
2021/08/19 02:25:14;;;;;;;;;;;;;;;21.81;68.23;96468.50;221409;262;97922;-48
2021/08/19 02:26:15;;;;;;;;;;;;;;;21.80;68.14;96462.75;220727;262;98025;-46
2021/08/19 02:27:16;;;;;;;;;;;;;;;21.82;68.10;96462.41;221927;261;97941;-47
2021/08/19 02:28:18;;;;;;;;;;;;;;;21.88;67.90;96459.61;220480;263;188929;-52
2021/08/19 02:29:19;;;;;;;;;;;;;;;21.83;68.15;96464.00;221761;261;277177;-47
2021/08/19 02:30:20;;;;;;;;;;;;;;;21.83;68.12;96465.38;220765;262;194700;-50
2021/08/19 02:31:22;;;;;;;;;;;;;;;21.84;68.03;96463.66;221271;262;193255;-48
2021/08/19 02:32:24;;;;;;;;;;;;;;;21.82;68.10;96459.06;221089;262;98946;-46
2021/08/19 02:33:25;;;;;;;;;;;;;;;21.82;68.14;96465.96;221377;262;98923;-53
2021/08/19 02:34:26;;;;;;;;;;;;;;;21.85;68.05;96469.39;220832;263;98975;-49
2021/08/19 02:35:28;;;;;;;;;;;;;;;21.82;68.08;96465.96;221822;261;98929;-47
2021/08/19 02:36:29;;;;;;;;;;;;;;;21.89;67.91;96464.77;220780;263;97981;-46
2021/08/19 02:37:30;;;;;;;;;;;;;;;21.90;67.88;96460.06;221745;261;97954;-46
2021/08/19 02:38:32;;;;;;;;;;;;;;;21.89;67.84;96467.53;220555;262;192421;-49
2021/08/19 02:39:33;;;;;;;;;;;;;;;21.85;67.96;96462.50;221746;262;97064;-52
2021/08/19 02:40:35;;;;;;;;;;;;;;;21.78;68.14;96462.85;222046;261;98981;-48
2021/08/19 02:41:36;;;;;;;;;;;;;;;21.77;68.17;96463.43;222162;261;99038;-46
2021/08/19 02:42:38;;;;;;;;;;;;;;;21.83;68.03;96464.00;221477;261;98959;-49
2021/08/19 02:43:44;;;;;;;;;;;;;;;21.86;67.97;96464.68;220643;262;98947;-50
2021/08/19 02:44:42;;;;;;;;;;;;;;;21.80;68.09;96462.75;220965;261;166409;-46
2021/08/19 02:45:44;;;;;;;;;;;;;;;21.80;68.09;96468.82;221647;261;193539;-45
2021/08/19 02:46:45;;;;;;;;;;;;;;;21.80;68.09;96464.13;221051;262;99058;-46
2021/08/19 02:47:46;;;;;;;;;;;;;;;21.83;67.99;96455.73;222287;260;98934;-46
2021/08/19 02:48:48;;;;;;;;;;;;;;;21.82;68.00;96461.83;221300;262;99837;-49
2021/08/19 02:49:49;;;;;;;;;;;;;;;21.83;67.96;96462.63;220486;263;98106;-49
2021/08/19 02:50:51;;;;;;;;;;;;;;;21.79;68.11;96458.94;222124;261;98020;-49
2021/08/19 02:51:52;;;;;;;;;;;;;;;21.75;68.19;96460.22;221623;261;97990;-50
2021/08/19 02:52:53;;;;;;;;;;;;;;;21.75;68.19;96462.98;221878;261;193770;-48
2021/08/19 02:53:54;;;;;;;;;;;;;;;21.78;68.14;96459.52;221844;261;100282;-49
2021/08/19 02:54:56;;;;;;;;;;;;;;;21.77;68.16;96460.67;221978;261;190129;-48
2021/08/19 02:55:57;;;;;;;;;;;;;;;21.77;68.19;96455.16;222166;260;278544;-48
2021/08/19 02:56:58;;;;;;;;;;;;;;;21.79;68.11;96455.60;220931;261;195949;-47
2021/08/19 02:58:00;;;;;;;;;;;;;;;21.80;68.01;96449.51;221146;261;195663;-48
2021/08/19 02:59:01;;;;;;;;;;;;;;;21.78;68.09;96458.14;222546;261;99050;-49
2021/08/19 03:00:02;;;;;;;;;;;;;;;21.73;68.22;96458.39;222209;261;190880;-46
2021/08/19 03:01:04;;;;;;;;;;;;;;;21.74;68.22;96454.48;222321;260;277992;-47
2021/08/19 03:02:05;;;;;;;;;;;;;;;21.77;68.21;96449.64;222610;260;195554;-51
2021/08/19 03:03:06;;;;;;;;;;;;;;;21.78;68.18;96454.00;222530;260;192868;-49
2021/08/19 03:04:08;;;;;;;;;;;;;;;21.79;68.11;96455.60;220762;262;98016;-47
2021/08/19 03:05:09;;;;;;;;;;;;;;;21.81;68.07;96448.38;221444;262;188561;-48
2021/08/19 03:06:10;;;;;;;;;;;;;;;21.78;68.20;96451.24;220399;262;276864;-47
2021/08/19 03:07:13;;;;;;;;;;;;;;;21.88;68.24;96452.14;221457;261;193832;-47
2021/08/19 03:08:14;;;;;;;;;;;;;;;21.84;68.00;96449.86;222079;260;193163;-45
2021/08/19 03:09:16;;;;;;;;;;;;;;;21.85;68.00;96448.70;222813;260;98068;-50
2021/08/19 03:10:17;;;;;;;;;;;;;;;21.82;68.10;96454.92;222494;260;190111;-50
2021/08/19 03:11:18;;;;;;;;;;;;;;;21.85;68.01;96454.80;222358;260;276710;-52
2021/08/19 03:12:20;;;;;;;;;;;;;;;21.86;67.96;96450.30;222459;260;193671;-45
2021/08/19 03:13:21;;;;;;;;;;;;;;;21.80;68.06;96446.20;222485;260;193519;-44
2021/08/19 03:14:22;;;;;;;;;;;;;;;21.81;68.10;96450.56;222803;260;98949;-52
2021/08/19 03:15:24;;;;;;;;;;;;;;;21.84;67.92;96452.62;222464;260;190186;-49
2021/08/19 03:16:25;;;;;;;;;;;;;;;21.80;68.07;96453.10;222305;260;280030;-46
2021/08/19 03:17:27;;;;;;;;;;;;;;;21.83;67.99;96453.77;222402;260;195627;-51
2021/08/19 03:18:28;;;;;;;;;;;;;;;21.84;67.95;96447.67;221890;260;193271;-47
2021/08/19 03:19:29;;;;;;;;;;;;;;;21.84;67.94;96451.81;222233;261;97937;-47
2021/08/19 03:20:31;;;;;;;;;;;;;;;21.78;68.08;96448.48;221871;261;189106;-50
2021/08/19 03:21:32;;;;;;;;;;;;;;;21.79;68.08;96459.73;221695;261;276381;-48
2021/08/19 03:22:33;;;;;;;;;;;;;;;21.80;68.05;96451.72;221860;261;196098;-46
2021/08/19 03:23:36;;;;;;;;;;;;;;;21.82;67.99;96453.55;221858;261;193593;-52
2021/08/19 03:24:37;;;;;;;;;;;;;;;21.81;68.08;96453.91;221698;261;97990;-46
2021/08/19 03:25:38;;;;;;;;;;;;;;;21.81;68.00;96453.91;221740;261;97608;-46
2021/08/19 03:26:40;;;;;;;;;;;;;;;21.83;67.92;96449.63;221773;261;98039;-46
2021/08/19 03:27:41;;;;;;;;;;;;;;;21.80;68.03;96448.96;221724;261;98014;-50
2021/08/19 03:28:42;;;;;;;;;;;;;;;21.80;68.03;96449.51;221882;261;98944;-49
2021/08/19 03:29:44;;;;;;;;;;;;;;;21.83;67.95;96457.91;221625;261;194926;-50
2021/08/19 03:30:46;;;;;;;;;;;;;;;21.83;67.97;96447.45;221633;261;193732;-44
2021/08/19 03:31:47;;;;;;;;;;;;;;;21.83;67.93;96452.39;221659;261;98015;-51
2021/08/19 03:32:49;;;;;;;;;;;;;;;21.81;67.97;96454.70;221737;261;98038;-49
2021/08/19 03:33:50;;;;;;;;;;;;;;;21.82;67.94;96461.83;221992;261;98113;-45
2021/08/19 03:34:52;;;;;;;;;;;;;;;21.84;67.89;96453.20;221908;260;98932;-49
2021/08/19 03:35:53;;;;;;;;;;;;;;;21.84;67.91;96455.95;222544;260;98980;-51
2021/08/19 03:36:55;;;;;;;;;;;;;;;21.82;67.91;96453.55;221986;260;194779;-45
2021/08/19 03:37:56;;;;;;;;;;;;;;;21.83;67.88;96457.91;222042;260;194298;-48
2021/08/19 03:38:58;;;;;;;;;;;;;;;21.83;67.87;96456.53;222524;261;98930;-44
2021/08/19 03:40:00;;;;;;;;;;;;;;;21.83;67.88;96455.16;222285;260;98934;-49
2021/08/19 03:41:01;;;;;;;;;;;;;;;21.84;67.86;96458.14;222789;260;98843;-48
2021/08/19 03:42:03;;;;;;;;;;;;;;;21.86;67.82;96459.16;222352;260;98944;-48
2021/08/19 03:43:04;;;;;;;;;;;;;;;21.84;67.92;96453.20;222812;260;98960;-49
2021/08/19 03:44:09;;;;;;;;;;;;;;;21.83;68.61;96459.29;222484;260;194930;-45
2021/08/19 03:45:09;;;;;;;;;;;;;;;21.83;68.00;96457.91;222021;260;161828;-46
2021/08/19 03:46:11;;;;;;;;;;;;;;;21.81;67.96;96459.42;222002;261;98936;-49
2021/08/19 03:47:12;;;;;;;;;;;;;;;21.75;68.20;96467.12;221855;261;98884;-47
2021/08/19 03:48:13;;;;;;;;;;;;;;;21.75;68.12;96458.84;222234;261;99070;-51
2021/08/19 03:49:15;;;;;;;;;;;;;;;21.77;68.13;96464.00;221839;261;98948;-48
2021/08/19 03:50:16;;;;;;;;;;;;;;;21.78;68.07;96462.27;222224;261;97945;-46
2021/08/19 03:51:17;;;;;;;;;;;;;;;21.80;68.04;96461.38;221197;262;98142;-51
2021/08/19 03:52:19;;;;;;;;;;;;;;;21.75;68.09;96461.59;220614;261;193247;-50
2021/08/19 03:53:20;;;;;;;;;;;;;;;21.82;67.92;96467.34;221673;261;97960;-45
2021/08/19 03:54:21;;;;;;;;;;;;;;;21.77;68.09;96463.43;222429;260;98872;-49
2021/08/19 03:55:23;;;;;;;;;;;;;;;21.73;68.26;96466.67;221468;261;98937;-50
2021/08/19 03:56:28;;;;;;;;;;;;;;;21.77;68.14;96460.67;222534;261;98959;-45
2021/08/19 03:57:27;;;;;;;;;;;;;;;21.79;68.06;96465.84;222096;260;246886;-51
2021/08/19 03:58:28;;;;;;;;;;;;;;;21.80;68.05;96460.55;220825;262;197297;-49
2021/08/19 03:59:30;;;;;;;;;;;;;;;21.79;68.07;96462.50;220526;263;194238;-46
2021/08/19 04:00:31;;;;;;;;;;;;;;;21.76;68.18;96460.45;220379;264;100217;-46
2021/08/19 04:01:32;;;;;;;;;;;;;;;21.81;68.02;96456.08;220127;262;98977;-50
2021/08/19 04:02:34;;;;;;;;;;;;;;;21.81;68.01;96459.42;222870;260;98856;-49
2021/08/19 04:03:35;;;;;;;;;;;;;;;21.74;68.19;96458.61;222544;260;98948;-50
2021/08/19 04:04:36;;;;;;;;;;;;;;;21.76;68.17;96454.13;221368;262;98865;-50
2021/08/19 04:05:38;;;;;;;;;;;;;;;21.78;68.12;96455.38;222733;260;98971;-51
2021/08/19 04:06:39;;;;;;;;;;;;;;;21.76;68.17;96452.75;222822;260;97979;-48
2021/08/19 04:07:41;;;;;;;;;;;;;;;21.75;68.17;96451.95;222933;260;98972;-46
2021/08/19 04:08:42;;;;;;;;;;;;;;;21.77;68.12;96449.64;222918;260;98934;-46
2021/08/19 04:09:43;;;;;;;;;;;;;;;21.75;68.15;96450.56;222802;260;98553;-51
2021/08/19 04:10:45;;;;;;;;;;;;;;;21.78;68.13;96454.58;220254;263;97996;-50
2021/08/19 04:11:46;;;;;;;;;;;;;;;21.76;68.16;96445.85;221310;261;97671;-50
2021/08/19 04:12:48;;;;;;;;;;;;;;;21.79;68.06;96444.57;222995;260;97995;-47
2021/08/19 04:13:50;;;;;;;;;;;;;;;21.75;68.19;96450.56;222666;260;192508;-47
2021/08/19 04:14:51;;;;;;;;;;;;;;;21.76;68.18;96449.41;222662;260;98905;-47
2021/08/19 04:15:53;;;;;;;;;;;;;;;21.75;68.24;96449.19;222943;260;97988;-46
2021/08/19 04:16:54;;;;;;;;;;;;;;;21.76;68.13;96454.93;220495;262;98023;-46
2021/08/19 04:17:55;;;;;;;;;;;;;;;21.80;68.00;96454.48;221881;262;98017;-46
2021/08/19 04:18:57;;;;;;;;;;;;;;;21.76;68.08;96454.93;222035;261;97074;-50
2021/08/19 04:19:58;;;;;;;;;;;;;;;21.77;68.09;96456.53;221246;262;196614;-47
2021/08/19 04:20:59;;;;;;;;;;;;;;;21.78;68.03;96456.76;221672;261;193264;-45
2021/08/19 04:22:01;;;;;;;;;;;;;;;21.75;68.13;96462.17;221455;262;98934;-51
2021/08/19 04:23:02;;;;;;;;;;;;;;;21.76;68.08;96463.78;221273;262;97979;-48
2021/08/19 04:24:03;;;;;;;;;;;;;;;21.76;68.08;96460.45;220454;263;99143;-51
2021/08/19 04:25:05;;;;;;;;;;;;;;;21.75;68.12;96454.70;220819;263;98024;-46
2021/08/19 04:26:06;;;;;;;;;;;;;;;21.80;67.94;96456.41;221403;262;98970;-47
2021/08/19 04:27:07;;;;;;;;;;;;;;;21.79;67.98;96458.36;221179;262;98947;-50
2021/08/19 04:28:09;;;;;;;;;;;;;;;21.76;68.00;96454.93;220709;262;98934;-49
2021/08/19 04:29:10;;;;;;;;;;;;;;;21.78;68.05;96462.85;222040;261;98937;-44
2021/08/19 04:30:11;;;;;;;;;;;;;;;21.76;68.12;96463.20;220655;263;97959;-52
2021/08/19 04:31:13;;;;;;;;;;;;;;;21.69;68.28;96460.22;222144;261;98023;-47
2021/08/19 04:32:14;;;;;;;;;;;;;;;21.72;68.17;96458.17;220904;262;98013;-48
2021/08/19 04:33:15;;;;;;;;;;;;;;;21.75;68.12;96467.12;221560;262;98955;-47
2021/08/19 04:34:17;;;;;;;;;;;;;;;21.74;68.12;96462.75;220921;262;98939;-51
2021/08/19 04:35:18;;;;;;;;;;;;;;;21.74;68.12;96464.13;221247;262;98936;-48
2021/08/19 04:36:19;;;;;;;;;;;;;;;21.78;68.01;96462.27;220758;263;100234;-49
2021/08/19 04:37:21;;;;;;;;;;;;;;;21.74;68.16;96472.98;221591;261;192532;-49
2021/08/19 04:38:22;;;;;;;;;;;;;;;21.75;68.08;96474.02;220592;262;278316;-50
2021/08/19 04:39:23;;;;;;;;;;;;;;;21.75;68.06;96469.88;221267;262;197023;-49
2021/08/19 04:40:25;;;;;;;;;;;;;;;21.77;68.04;96469.52;221950;261;194163;-45
2021/08/19 04:41:26;;;;;;;;;;;;;;;21.75;68.09;96469.08;221434;262;97987;-47
2021/08/19 04:42:27;;;;;;;;;;;;;;;21.74;68.20;96470.23;220712;263;189926;-46
2021/08/19 04:43:29;;;;;;;;;;;;;;;21.74;68.16;96473.78;221662;261;278133;-46
2021/08/19 04:44:30;;;;;;;;;;;;;;;21.76;68.08;96474.81;220684;263;194638;-45
2021/08/19 04:45:31;;;;;;;;;;;;;;;21.76;68.08;96474.81;221846;260;192197;-48
2021/08/19 04:46:33;;;;;;;;;;;;;;;21.75;68.05;96467.12;221039;262;98965;-49
2021/08/19 04:47:35;;;;;;;;;;;;;;;21.76;68.10;96471.48;221325;262;98099;-46
2021/08/19 04:48:36;;;;;;;;;;;;;;;21.79;67.98;96474.91;221134;262;98846;-47
2021/08/19 04:49:37;;;;;;;;;;;;;;;21.76;68.04;96471.48;221349;262;98943;-48
2021/08/19 04:50:39;;;;;;;;;;;;;;;21.77;68.00;96466.77;221332;262;98863;-45
2021/08/19 04:51:41;;;;;;;;;;;;;;;21.77;68.06;96461.25;221640;261;98909;-45
2021/08/19 04:52:43;;;;;;;;;;;;;;;21.75;68.06;96469.08;220170;263;192286;-50
2021/08/19 04:53:44;;;;;;;;;;;;;;;21.78;68.00;96470.55;221536;261;99025;-46
2021/08/19 04:54:46;;;;;;;;;;;;;;;21.74;68.10;96467.47;221708;261;98953;-49
2021/08/19 04:55:47;;;;;;;;;;;;;;;21.75;68.08;96470.45;220661;263;98950;-51
2021/08/19 04:56:48;;;;;;;;;;;;;;;21.71;68.19;96471.73;221370;261;99046;-50
2021/08/19 04:57:50;;;;;;;;;;;;;;;21.72;68.21;96471.95;221855;261;97999;-45
2021/08/19 04:58:51;;;;;;;;;;;;;;;21.74;68.13;96476.55;220613;262;98015;-45
2021/08/19 04:59:52;;;;;;;;;;;;;;;21.74;68.10;96466.89;221237;262;193399;-49
2021/08/19 05:00:53;;;;;;;;;;;;;;;21.79;67.96;96464.45;220822;262;97513;-49
2021/08/19 05:01:55;;;;;;;;;;;;;;;21.77;68.02;96463.43;221128;262;189723;-50
2021/08/19 05:02:56;;;;;;;;;;;;;;;21.76;68.06;96465.16;220052;262;277546;-48
2021/08/19 05:04:03;;;;;;;;;;;;;;;21.75;68.09;96468.50;221328;261;194735;-45
2021/08/19 05:05:01;;;;;;;;;;;;;;;21.75;68.12;96467.12;221853;261;164160;-47
2021/08/19 05:06:02;;;;;;;;;;;;;;;21.78;68.03;96467.79;221944;261;98947;-49
2021/08/19 05:07:03;;;;;;;;;;;;;;;21.80;67.96;96464.13;220629;263;97476;-53
2021/08/19 05:08:05;;;;;;;;;;;;;;;21.80;67.94;96464.13;221969;261;98391;-48
2021/08/19 05:09:06;;;;;;;;;;;;;;;21.76;68.05;96465.96;219992;263;97067;-49
2021/08/19 05:10:07;;;;;;;;;;;;;;;21.76;68.05;96460.45;221696;261;99455;-50
2021/08/19 05:11:09;;;;;;;;;;;;;;;21.77;68.06;96463.43;220665;261;98933;-51
2021/08/19 05:12:10;;;;;;;;;;;;;;;21.78;68.04;96462.85;221189;262;98915;-51
2021/08/19 05:13:11;;;;;;;;;;;;;;;21.79;67.99;96468.59;222923;260;98948;-46
2021/08/19 05:14:13;;;;;;;;;;;;;;;21.77;68.00;96469.52;223101;260;98936;-49
2021/08/19 05:15:15;;;;;;;;;;;;;;;21.77;68.04;96466.19;223044;260;98908;-49
2021/08/19 05:16:16;;;;;;;;;;;;;;;21.77;68.06;96468.95;222614;260;97960;-52
2021/08/19 05:17:17;;;;;;;;;;;;;;;21.81;67.96;96468.50;222770;260;98014;-46
2021/08/19 05:18:19;;;;;;;;;;;;;;;21.80;67.96;96468.27;222658;260;97517;-47